Airfield :
LOGIN :

Register | Disclaimer

   EN    FR    IT 

 










Legend :    VFR   Marginal VFR   IFR   Intensive IFR   Very Intensive IFR
Visi :
Ceiling :
>= 8 km
>= 3000ft
5 to 8 km
1000 to 3000 ft
1500m to 5 km
500 to 1000 ft
800 to 1500m
200 to 500 ft
< 800m
< 200 ft
Symbols :   Thunderstorms  Fog  Heavy snow  Heavy precipitations  Wind > 20 kt
SIGMETs :     Misc.  Thunderstorms  Icing  Turbulence  Mountain Waves  Volcanic Ashes






- Airport Elevation : 19 ft
- IATA code : VTS


EVVA - Ventspils Int.

CURRENT METAR :
  • 291320Z AUTO 34005KT CAVOK 23/20 Q1017

EXPIRED METARs :
  • 291250Z AUTO 30004KT CAVOK 24/20 Q1017
  • 291220Z AUTO 31005KT 280V340 CAVOK 24/21 Q1017
  • 291150Z AUTO 31004KT CAVOK 24/21 Q1017
  • 291120Z AUTO VRB01KT CAVOK 25/21 Q1017
  • 291050Z AUTO 30004KT 260V350 9999 FEW022 24/21 Q1017

TAF TAF EVVA
Valid from the 29 at 12:00 until the 29 at 21:00 UTC


291111Z 2912/2921 14005KT 9999 SCT025
TEMPO 2912/2915 VRB30KT 2000 TSRA BKN030CB



MET'MAP, your aeronautical weather chart ! - Copyright ORBIFLY December 2007 - Disclaimer

ORBIFLY MET'MAP TEAM :

Programming & Development : Alexandra Zaïnal
Original concept : Baudouin d'Aumeries
Technical & hardware support : Manuel Goepfert
Assistance : Marc-Olivier Méhu




SOURCES & CREDITS :

   NOAA